Time;durP1;ratioP1;P1;durP2;ratioP2;P2;SDS_P1;SDS_P2;PMS_P1;PMS_P2;Temp;Humidity;BMP_temperature;BMP_pressure;BME280_temperature;BME280_humidity;BME280_pressure;Samples;Min_cycle;Max_cycle;Signal;HPM_P1;HPM_P2
2021/09/02 00:00:28;;;;;;;7.50;4.50;;;;;;;15.14;100.00;102053.75;4961524;28;20249;-76
2021/09/02 00:02:54;;;;;;;10.90;4.93;;;;;;;15.02;100.00;102053.13;5012226;28;20235;-75
2021/09/02 00:05:20;;;;;;;11.70;5.30;;;;;;;14.94;100.00;102052.00;5009459;28;20193;-74
2021/09/02 00:07:46;;;;;;;8.23;5.32;;;;;;;15.08;100.00;102057.53;5010285;28;20216;-75
2021/09/02 00:10:14;;;;;;;8.77;4.95;;;;;;;14.89;100.00;102055.53;5001871;28;20205;-75
2021/09/02 00:12:44;;;;;;;9.07;5.13;;;;;;;14.96;100.00;102049.81;4999899;28;20231;-75
2021/09/02 00:15:12;;;;;;;9.85;5.10;;;;;;;14.91;100.00;102047.03;4985485;28;20657;-74
2021/09/02 00:17:37;;;;;;;8.65;5.18;;;;;;;14.93;100.00;102053.09;4982430;28;20263;-75
2021/09/02 00:20:08;;;;;;;8.43;5.13;;;;;;;14.84;100.00;102057.44;4965750;28;20267;-76
2021/09/02 00:22:34;;;;;;;8.80;4.80;;;;;;;14.70;100.00;102061.72;5014521;28;20196;-75
2021/09/02 00:25:03;;;;;;;7.47;4.90;;;;;;;14.68;100.00;102058.44;4998524;28;20180;-74
2021/09/02 00:27:31;;;;;;;10.00;5.05;;;;;;;14.76;100.00;102052.44;5013906;28;20247;-74
2021/09/02 00:29:56;;;;;;;10.63;5.50;;;;;;;14.67;100.00;102062.25;4997529;28;20193;-75
2021/09/02 00:32:22;;;;;;;8.95;5.25;;;;;;;14.46;100.00;102062.38;4977824;28;20279;-76
2021/09/02 00:34:47;;;;;;;7.90;5.35;;;;;;;14.52;100.00;102053.13;4977982;28;20193;-74
2021/09/02 00:37:15;;;;;;;8.90;5.30;;;;;;;14.44;100.00;102050.91;4981264;28;20224;-76
2021/09/02 00:39:41;;;;;;;11.00;5.43;;;;;;;14.55;100.00;102047.13;4989520;28;20192;-76
2021/09/02 00:42:06;;;;;;;10.33;5.50;;;;;;;14.47;100.00;102050.34;4998501;28;20225;-74
2021/09/02 00:44:39;;;;;;;8.97;5.93;;;;;;;14.37;100.00;102051.09;4997733;28;20195;-75
2021/09/02 00:47:08;;;;;;;9.80;5.33;;;;;;;14.39;100.00;102048.94;4966385;28;20311;-74
2021/09/02 00:49:34;;;;;;;9.00;5.38;;;;;;;14.24;100.00;102048.81;4997668;28;20185;-75
2021/09/02 00:52:15;;;;;;;9.00;5.07;;;;;;;14.33;100.00;102050.00;4977849;28;20247;-74
2021/09/02 00:54:44;;;;;;;8.90;5.07;;;;;;;14.27;100.00;102042.84;4978927;28;20601;-75
2021/09/02 00:57:15;;;;;;;8.83;4.80;;;;;;;14.14;100.00;102044.38;5004013;28;20299;-75
2021/09/02 00:59:40;;;;;;;6.83;5.10;;;;;;;14.23;100.00;102037.34;4981732;28;20181;-74
2021/09/02 01:02:07;;;;;;;7.70;5.13;;;;;;;14.13;100.00;102048.19;4977288;28;20283;-74
2021/09/02 01:04:35;;;;;;;8.60;5.10;;;;;;;13.99;100.00;102036.03;4977772;28;20276;-74
2021/09/02 01:07:05;;;;;;;6.87;5.07;;;;;;;14.09;100.00;102036.16;4981977;28;20216;-74
2021/09/02 01:09:31;;;;;;;10.37;5.57;;;;;;;14.15;100.00;102035.91;5037618;28;20208;-75
2021/09/02 01:11:57;;;;;;;8.20;5.37;;;;;;;14.09;100.00;102036.97;4985396;28;20225;-75
2021/09/02 01:14:23;;;;;;;8.77;5.73;;;;;;;13.90;100.00;102040.34;5029620;28;20197;-75
2021/09/02 01:16:51;;;;;;;7.93;5.20;;;;;;;13.83;100.00;102037.00;4993563;28;20201;-75
2021/09/02 01:19:22;;;;;;;8.65;4.97;;;;;;;13.70;100.00;102037.41;4960972;28;20272;-75
2021/09/02 01:21:48;;;;;;;7.10;4.80;;;;;;;13.63;100.00;102042.25;4982425;28;20220;-75
2021/09/02 01:24:14;;;;;;;7.97;4.47;;;;;;;13.75;100.00;102029.25;5012751;28;20267;-73
2021/09/02 01:26:39;;;;;;;9.00;4.87;;;;;;;13.62;100.00;102024.22;4979537;28;20315;-74
2021/09/02 01:29:13;;;;;;;6.83;4.43;;;;;;;13.83;100.00;102031.53;5012593;28;20193;-75
2021/09/02 01:31:42;;;;;;;7.37;4.80;;;;;;;13.87;100.00;102033.47;5012766;28;20228;-74
2021/09/02 01:34:13;;;;;;;5.75;4.28;;;;;;;13.57;100.00;102032.38;4996668;28;20189;-77
2021/09/02 01:36:46;;;;;;;6.57;4.90;;;;;;;13.50;100.00;102031.75;4996628;28;20241;-75
2021/09/02 01:39:21;;;;;;;5.87;4.77;;;;;;;13.42;100.00;102033.28;5018820;28;20184;-76
2021/09/02 01:41:47;;;;;;;6.30;5.00;;;;;;;13.59;100.00;102035.66;4997471;28;20220;-74
2021/09/02 01:44:12;;;;;;;9.67;6.40;;;;;;;13.66;100.00;102036.28;4996591;28;20662;-76
2021/09/02 01:46:38;;;;;;;6.83;5.73;;;;;;;13.47;100.00;102034.16;5028548;28;20229;-75
2021/09/02 01:49:04;;;;;;;6.60;5.00;;;;;;;13.42;100.00;102036.03;4996407;28;20215;-74
2021/09/02 01:51:29;;;;;;;8.40;5.17;;;;;;;13.40;100.00;102035.47;4979517;28;20220;-76
2021/09/02 01:53:57;;;;;;;7.03;4.80;;;;;;;13.32;100.00;102033.19;5012564;28;20189;-75
2021/09/02 01:56:25;;;;;;;6.57;4.83;;;;;;;13.25;100.00;102027.94;4980380;28;20228;-76
2021/09/02 01:58:52;;;;;;;5.97;5.30;;;;;;;13.35;100.00;102038.13;4992612;28;20270;-75
2021/09/02 02:01:18;;;;;;;6.10;4.57;;;;;;;13.26;100.00;102028.75;4980605;28;20278;-75
2021/09/02 02:03:43;;;;;;;7.27;4.37;;;;;;;13.27;100.00;102044.06;4982185;28;20182;-75
2021/09/02 02:06:09;;;;;;;5.80;4.47;;;;;;;13.20;100.00;102037.97;4976587;28;20230;-75
2021/09/02 02:08:39;;;;;;;8.73;4.90;;;;;;;13.15;100.00;102038.75;4986318;28;20233;-75
2021/09/02 02:11:05;;;;;;;5.77;4.70;;;;;;;13.10;100.00;102041.41;5015644;28;20313;-75
2021/09/02 02:13:30;;;;;;;6.93;4.73;;;;;;;13.23;100.00;102034.72;5021990;28;20186;-76
2021/09/02 02:15:58;;;;;;;5.97;4.40;;;;;;;13.23;100.00;102048.38;4979648;28;20228;-75
2021/09/02 02:18:26;;;;;;;5.63;4.47;;;;;;;13.04;100.00;102041.59;4991886;28;20201;-75
2021/09/02 02:20:54;;;;;;;7.93;4.77;;;;;;;13.02;100.00;102038.31;4975478;28;20778;-76
2021/09/02 02:23:22;;;;;;;6.13;4.37;;;;;;;13.10;100.00;102040.59;4965269;28;20217;-76
2021/09/02 02:25:50;;;;;;;6.77;4.83;;;;;;;13.15;100.00;102041.47;4991456;28;20214;-75
2021/09/02 02:28:16;;;;;;;6.67;5.07;;;;;;;13.23;100.00;102045.66;5011545;28;20817;-75
2021/09/02 02:30:41;;;;;;;6.33;4.60;;;;;;;13.09;100.00;102041.66;5011296;28;20228;-76
2021/09/02 02:33:09;;;;;;;7.53;4.80;;;;;;;12.93;100.00;102034.38;4995385;28;20188;-75
2021/09/02 02:35:35;;;;;;;8.17;4.80;;;;;;;12.78;100.00;102036.03;5011663;28;20217;-75
2021/09/02 02:38:03;;;;;;;8.17;4.33;;;;;;;12.77;100.00;102040.66;5011467;28;20263;-75
2021/09/02 02:40:33;;;;;;;6.10;4.10;;;;;;;12.79;100.00;102033.09;4988009;28;20221;-75
2021/09/02 02:43:02;;;;;;;6.00;4.23;;;;;;;12.84;100.00;102030.44;5029620;28;20193;-76
2021/09/02 02:45:28;;;;;;;7.37;4.73;;;;;;;12.71;100.00;102036.25;4963273;28;20220;-76
2021/09/02 02:47:58;;;;;;;6.60;4.80;;;;;;;12.76;100.00;102043.66;5027773;28;20259;-75
2021/09/02 02:50:23;;;;;;;9.83;5.77;;;;;;;12.90;100.00;102029.41;4979249;28;20224;-76
2021/09/02 02:52:49;;;;;;;8.23;5.30;;;;;;;13.05;100.00;102037.78;4995797;28;20239;-76
2021/09/02 02:55:19;;;;;;;7.60;5.60;;;;;;;13.03;100.00;102028.22;5011425;28;20185;-75
2021/09/02 02:57:45;;;;;;;8.40;6.30;;;;;;;12.93;100.00;102044.44;5011931;28;20204;-76
2021/09/02 03:00:13;;;;;;;10.47;6.73;;;;;;;12.89;100.00;102030.50;4960604;28;20182;-76
2021/09/02 03:02:38;;;;;;;9.57;6.77;;;;;;;12.95;100.00;102029.50;4992112;28;20181;-75
2021/09/02 03:05:10;;;;;;;11.87;7.47;;;;;;;13.04;100.00;102033.44;4994838;28;20185;-76
2021/09/02 03:07:40;;;;;;;13.00;7.93;;;;;;;13.25;100.00;102032.56;4996019;28;20229;-76
2021/09/02 03:10:12;;;;;;;13.03;8.30;;;;;;;13.26;100.00;102034.19;5018311;28;20266;-76
2021/09/02 03:12:40;;;;;;;13.70;8.77;;;;;;;13.27;100.00;102030.41;5046041;28;20250;-78
2021/09/02 03:15:06;;;;;;;13.73;9.20;;;;;;;13.17;100.00;102033.84;5014269;28;20650;-77
2021/09/02 03:17:32;;;;;;;16.10;9.97;;;;;;;13.29;100.00;102029.06;4994909;28;20237;-75
2021/09/02 03:19:57;;;;;;;16.37;9.73;;;;;;;13.37;100.00;102038.69;5011136;28;20203;-75
2021/09/02 03:22:23;;;;;;;14.80;9.00;;;;;;;13.37;100.00;102035.97;4993910;28;20283;-76
2021/09/02 03:24:51;;;;;;;13.27;8.97;;;;;;;13.45;100.00;102038.25;5001645;28;20193;-76
2021/09/02 03:27:19;;;;;;;48.17;9.80;;;;;;;13.41;100.00;102037.13;5010439;28;20225;-75
2021/09/02 03:29:49;;;;;;;70.60;9.80;;;;;;;13.35;100.00;102049.88;4962478;28;20555;-75
2021/09/02 03:32:15;;;;;;;83.93;10.17;;;;;;;13.40;100.00;102035.47;4993520;28;20722;-75
2021/09/02 03:34:43;;;;;;;27.57;8.40;;;;;;;13.32;100.00;102044.13;4996518;28;20193;-75
2021/09/02 03:37:13;;;;;;;73.53;9.97;;;;;;;13.33;100.00;102045.75;4989186;28;20213;-76
2021/09/02 03:39:39;;;;;;;49.20;10.07;;;;;;;13.27;100.00;102044.06;5019346;28;20185;-76
2021/09/02 03:42:07;;;;;;;50.77;8.90;;;;;;;13.24;100.00;102042.66;4999795;28;20212;-75
2021/09/02 03:44:35;;;;;;;17.60;7.63;;;;;;;13.28;100.00;102042.97;5010508;28;20239;-75
2021/09/02 03:47:01;;;;;;;22.70;7.60;;;;;;;13.37;100.00;102038.69;4992873;28;20319;-76
2021/09/02 03:49:28;;;;;;;17.90;7.33;;;;;;;13.33;100.00;102045.75;4993728;28;20178;-75
2021/09/02 03:51:54;;;;;;;11.23;7.27;;;;;;;13.33;100.00;102041.13;5010116;28;20228;-75
2021/09/02 03:54:20;;;;;;;40.57;7.80;;;;;;;13.28;100.00;102042.97;4994277;28;20185;-76
2021/09/02 03:56:50;;;;;;;24.43;7.60;;;;;;;13.25;100.00;102049.75;5006019;28;20231;-74
2021/09/02 03:59:20;;;;;;;14.13;7.80;;;;;;;13.15;100.00;102048.84;4979389;28;20177;-75
2021/09/02 04:01:46;;;;;;;27.67;8.27;;;;;;;13.24;100.00;102041.81;5026418;28;20792;-75
2021/09/02 04:04:14;;;;;;;21.53;7.67;;;;;;;13.20;100.00;102036.03;4959669;28;20317;-75
2021/09/02 04:06:39;;;;;;;27.30;7.37;;;;;;;13.04;100.00;102047.06;4971371;28;20734;-75
2021/09/02 04:09:07;;;;;;;32.27;6.60;;;;;;;12.90;100.00;102051.25;5023244;28;20192;-74
2021/09/02 04:11:32;;;;;;;27.17;7.33;;;;;;;12.79;100.00;102040.44;4982678;28;20217;-74
2021/09/02 04:13:58;;;;;;;11.60;6.77;;;;;;;12.76;100.00;102058.13;5015821;28;20184;-74
2021/09/02 04:16:24;;;;;;;20.00;7.37;;;;;;;12.77;100.00;102051.59;5002585;28;20208;-75
2021/09/02 04:18:52;;;;;;;19.33;8.30;;;;;;;12.69;100.00;102049.28;4982310;28;20208;-75
2021/09/02 04:21:21;;;;;;;28.20;8.33;;;;;;;12.87;100.00;102051.72;5026249;28;20304;-75
2021/09/02 04:23:48;;;;;;;18.50;8.93;;;;;;;12.86;100.00;102060.19;5011688;28;20537;-76
2021/09/02 04:26:16;;;;;;;25.10;8.37;;;;;;;12.91;100.00;102044.72;5010821;28;20251;-75
2021/09/02 04:28:41;;;;;;;21.20;8.40;;;;;;;12.91;100.00;102044.72;4995566;28;20263;-74
2021/09/02 04:31:11;;;;;;;15.10;7.60;;;;;;;12.79;100.00;102049.47;4994716;28;20220;-74
2021/09/02 04:33:37;;;;;;;14.00;7.70;;;;;;;12.87;100.00;102049.00;5010935;28;20196;-74
2021/09/02 04:36:03;;;;;;;24.07;8.40;;;;;;;12.90;100.00;102051.25;4994409;28;20597;-77
2021/09/02 04:38:31;;;;;;;28.83;7.90;;;;;;;12.72;100.00;102042.50;4994816;28;20247;-78
2021/09/02 04:40:57;;;;;;;31.93;7.50;;;;;;;12.60;100.00;102040.97;4988563;28;20225;-76
2021/09/02 04:43:25;;;;;;;19.87;8.27;;;;;;;12.56;100.00;102053.44;5028414;28;20215;-75
2021/09/02 04:45:52;;;;;;;32.10;8.70;;;;;;;12.79;100.00;102056.78;4978021;28;20225;-75
2021/09/02 04:48:22;;;;;;;32.27;8.60;;;;;;;12.93;100.00;102045.28;4977477;28;20219;-75
2021/09/02 04:50:51;;;;;;;23.50;8.80;;;;;;;12.81;100.00;102050.03;4990258;28;20253;-75
2021/09/02 04:53:17;;;;;;;28.63;9.23;;;;;;;12.81;100.00;102047.31;4975155;28;20218;-74
2021/09/02 04:55:42;;;;;;;34.87;8.20;;;;;;;12.81;100.00;102043.75;4981968;28;20217;-75
2021/09/02 04:58:09;;;;;;;14.97;7.97;;;;;;;12.80;100.00;102042.09;4997521;28;20224;-74
2021/09/02 05:00:35;;;;;;;27.33;8.73;;;;;;;12.78;100.00;102044.22;4977972;28;20233;-75
2021/09/02 05:03:01;;;;;;;14.30;8.50;;;;;;;12.83;100.00;102039.69;4979261;28;20212;-75
2021/09/02 05:05:27;;;;;;;11.17;8.33;;;;;;;12.70;100.00;102045.47;4997857;28;20224;-74
2021/09/02 05:07:53;;;;;;;21.50;8.57;;;;;;;12.87;100.00;102045.47;4965159;28;20213;-76
2021/09/02 05:10:21;;;;;;;20.00;7.97;;;;;;;12.78;100.00;102047.78;5004785;28;20197;-77
2021/09/02 05:12:46;;;;;;;12.53;7.60;;;;;;;12.68;100.00;102055.00;5017822;28;20200;-75
2021/09/02 05:15:14;;;;;;;13.43;8.20;;;;;;;12.83;100.00;102056.03;5016398;28;20185;-77
2021/09/02 05:17:42;;;;;;;13.53;8.00;;;;;;;12.89;100.00;102056.94;4965870;28;20284;-76
2021/09/02 05:20:08;;;;;;;14.40;8.57;;;;;;;12.80;100.00;102062.03;4981548;28;20193;-74
2021/09/02 05:22:33;;;;;;;23.03;7.87;;;;;;;13.10;100.00;102059.69;4981739;28;20208;-74
2021/09/02 05:25:01;;;;;;;26.70;8.17;;;;;;;13.22;100.00;102055.75;5023575;28;20197;-74
2021/09/02 05:27:32;;;;;;;17.93;7.40;;;;;;;13.00;100.00;102066.91;5009110;28;20214;-75
2021/09/02 05:29:58;;;;;;;22.40;8.33;;;;;;;13.07;100.00;102073.81;5010252;28;20568;-76
2021/09/02 05:32:26;;;;;;;19.20;7.40;;;;;;;13.09;100.00;102071.66;4989337;28;20240;-75
2021/09/02 05:34:54;;;;;;;11.50;7.40;;;;;;;13.07;100.00;102074.63;5015068;28;20654;-76
2021/09/02 05:37:20;;;;;;;11.87;6.70;;;;;;;13.09;100.00;102077.97;5014681;28;20609;-76
2021/09/02 05:39:47;;;;;;;12.37;6.80;;;;;;;13.15;100.00;102076.13;5005369;28;20267;-78
2021/09/02 05:42:15;;;;;;;20.87;6.83;;;;;;;13.29;100.00;102069.19;4998535;28;20231;-77
2021/09/02 05:44:41;;;;;;;16.50;6.90;;;;;;;13.43;100.00;102075.91;4981944;28;20639;-76
2021/09/02 05:47:07;;;;;;;6.87;6.27;;;;;;;13.28;100.00;102073.00;4989751;28;20275;-77
2021/09/02 05:49:32;;;;;;;8.87;6.20;;;;;;;13.33;100.00;102076.63;5013773;28;20197;-77
2021/09/02 05:52:00;;;;;;;12.60;6.60;;;;;;;13.32;100.00;102074.13;4997206;28;20585;-78
2021/09/02 05:54:28;;;;;;;15.53;6.23;;;;;;;13.45;100.00;102077.28;4998077;28;20189;-77
2021/09/02 05:56:54;;;;;;;8.53;6.70;;;;;;;13.46;100.00;102073.50;5010237;28;20272;-77
2021/09/02 05:59:21;;;;;;;8.03;6.40;;;;;;;13.47;100.00;102075.94;4993693;28;20170;-78
2021/09/02 06:01:49;;;;;;;7.83;6.00;;;;;;;13.48;100.00;102077.59;4992709;28;20218;-77
2021/09/02 06:04:17;;;;;;;8.90;6.50;;;;;;;13.59;100.00;102073.91;4992396;28;20709;-77
2021/09/02 06:06:45;;;;;;;6.90;6.30;;;;;;;13.36;100.00;102078.81;5005111;28;20594;-78
2021/09/02 06:09:15;;;;;;;8.50;6.40;;;;;;;13.46;100.00;102074.31;4985982;28;20239;-78
2021/09/02 06:11:40;;;;;;;7.30;6.60;;;;;;;13.63;100.00;102076.94;4991915;28;20214;-78
2021/09/02 06:14:06;;;;;;;7.50;6.60;;;;;;;13.90;100.00;102078.59;4992037;28;20185;-77
2021/09/02 06:16:31;;;;;;;7.00;6.40;;;;;;;14.06;100.00;102083.13;4979532;28;20208;-77
2021/09/02 06:18:59;;;;;;;7.40;6.80;;;;;;;14.16;100.00;102083.22;4995352;28;20207;-78
2021/09/02 06:21:27;;;;;;;6.90;6.30;;;;;;;14.17;100.00;102087.59;4995799;28;20220;-77
2021/09/02 06:23:55;;;;;;;7.73;6.50;;;;;;;14.23;100.00;102077.25;4979712;28;20185;-78
2021/09/02 06:26:23;;;;;;;8.13;6.53;;;;;;;14.44;100.00;102079.06;4995740;28;20229;-77
2021/09/02 06:28:49;;;;;;;7.33;6.70;;;;;;;14.77;100.00;102095.13;5027641;28;20594;-77
2021/09/02 06:31:14;;;;;;;7.67;6.27;;;;;;;14.84;100.00;102087.53;4964295;28;20725;-78
2021/09/02 06:33:40;;;;;;;6.90;6.30;;;;;;;14.73;100.00;102088.56;4962969;28;20189;-77
2021/09/02 06:36:08;;;;;;;7.67;6.37;;;;;;;14.66;100.00;102077.84;5011598;28;20303;-77
2021/09/02 06:38:33;;;;;;;7.27;6.63;;;;;;;15.01;100.00;102089.78;4993893;28;20205;-77
2021/09/02 06:41:01;;;;;;;7.57;6.87;;;;;;;15.10;100.00;102088.19;5014442;28;20227;-76
2021/09/02 06:43:29;;;;;;;7.43;6.73;;;;;;;15.12;100.00;102096.16;5000016;28;20197;-77
2021/09/02 06:45:57;;;;;;;7.53;6.82;;;;;;;15.34;100.00;102102.31;4995505;28;20232;-78
2021/09/02 06:48:25;;;;;;;7.33;6.63;;;;;;;15.41;100.00;102093.56;4962698;28;20236;-78
2021/09/02 06:50:53;;;;;;;7.10;6.50;;;;;;;15.41;100.00;102092.75;4995240;28;20221;-78
2021/09/02 06:53:18;;;;;;;7.10;6.40;;;;;;;15.58;100.00;102090.59;4998236;28;20197;-77
2021/09/02 06:55:44;;;;;;;7.03;6.43;;;;;;;15.43;100.00;102090.56;4992155;28;20217;-78
2021/09/02 06:58:10;;;;;;;7.18;6.47;;;;;;;15.53;100.00;102085.09;5004861;28;20220;-78
2021/09/02 07:00:35;;;;;;;7.35;6.65;;;;;;;15.91;100.00;102078.03;4995478;28;20224;-78
2021/09/02 07:03:01;;;;;;;6.93;6.30;;;;;;;15.90;100.00;102087.38;4976014;28;20185;-78
2021/09/02 07:05:26;;;;;;;7.53;6.40;;;;;;;16.28;100.00;102079.47;4975067;28;20225;-77
2021/09/02 07:07:59;;;;;;;7.60;6.30;;;;;;;16.12;100.00;102085.22;4974369;28;20870;-77
2021/09/02 07:10:27;;;;;;;6.80;6.20;;;;;;;16.12;100.00;102084.41;4972923;28;20284;-78
2021/09/02 07:12:53;;;;;;;7.20;6.15;;;;;;;16.16;100.00;102088.22;5024134;28;20223;-78
2021/09/02 07:15:19;;;;;;;7.00;6.05;;;;;;;16.31;100.00;102094.56;4995541;28;20655;-77
2021/09/02 07:17:45;;;;;;;7.03;6.32;;;;;;;16.38;100.00;102100.59;4979060;28;20193;-77
2021/09/02 07:20:15;;;;;;;7.53;6.20;;;;;;;16.49;100.00;102102.25;4994381;28;20196;-78
2021/09/02 07:22:41;;;;;;;8.45;6.40;;;;;;;16.55;100.00;102095.63;4994962;28;20185;-78
2021/09/02 07:25:07;;;;;;;8.88;6.45;;;;;;;16.75;100.00;102096.44;4977649;28;20247;-79
2021/09/02 07:27:35;;;;;;;6.95;6.30;;;;;;;16.87;100.00;102100.53;4994523;28;20229;-78
2021/09/02 07:30:03;;;;;;;9.30;6.80;;;;;;;16.88;100.00;102104.09;4994392;28;20240;-78
2021/09/02 07:32:30;;;;;;;6.68;6.07;;;;;;;17.11;100.00;102096.06;4978373;28;20208;-78
2021/09/02 07:34:58;;;;;;;7.05;6.35;;;;;;;17.30;100.00;102106.16;4995002;28;20189;-77
2021/09/02 07:37:24;;;;;;;9.45;6.53;;;;;;;17.21;100.00;102107.03;5011746;28;20220;-78
2021/09/02 07:39:50;;;;;;;7.03;6.32;;;;;;;17.42;100.00;102110.25;4986468;28;20172;-77
2021/09/02 07:42:16;;;;;;;8.75;6.22;;;;;;;17.34;100.00;102102.59;5029018;28;20696;-78
2021/09/02 07:44:44;;;;;;;7.03;6.40;;;;;;;17.18;100.00;102102.94;4998502;28;20250;-78
2021/09/02 07:47:10;;;;;;;8.95;6.45;;;;;;;16.95;100.00;102098.00;4977964;28;20229;-78
2021/09/02 07:49:38;;;;;;;8.00;6.55;;;;;;;17.25;100.00;102102.63;4963081;28;20189;-77
2021/09/02 07:52:04;;;;;;;8.25;6.85;;;;;;;17.50;100.00;102109.66;5011153;28;20279;-78
2021/09/02 07:54:34;;;;;;;8.55;6.85;;;;;;;17.45;100.00;102109.69;5000965;28;20217;-78
2021/09/02 07:57:03;;;;;;;6.93;6.15;;;;;;;17.29;100.00;102106.44;4979321;28;20718;-78
2021/09/02 07:59:28;;;;;;;9.18;7.55;;;;;;;17.29;100.00;102110.03;4994513;28;20212;-78
2021/09/02 08:01:54;;;;;;;9.75;7.47;;;;;;;17.18;100.00;102116.66;4978040;28;20233;-78
2021/09/02 08:04:21;;;;;;;9.98;7.20;;;;;;;17.37;100.00;102114.94;4982752;28;20192;-78
2021/09/02 08:06:47;;;;;;;11.05;7.13;;;;;;;17.56;100.00;102125.00;4990475;28;20225;-77
2021/09/02 08:09:12;;;;;;;11.05;7.90;;;;;;;17.60;100.00;102128.84;5000753;28;20223;-78
2021/09/02 08:11:38;;;;;;;10.82;8.10;;;;;;;18.00;100.00;102128.59;4998086;28;20223;-78
2021/09/02 08:14:03;;;;;;;9.35;7.05;;;;;;;18.39;100.00;102128.34;4989598;28;20173;-78
2021/09/02 08:16:29;;;;;;;11.30;7.38;;;;;;;18.77;100.00;102114.50;4994999;28;20220;-77
2021/09/02 08:18:57;;;;;;;9.63;7.00;;;;;;;19.04;100.00;102121.09;4964013;28;20201;-78
2021/09/02 08:21:25;;;;;;;11.23;7.30;;;;;;;18.88;100.00;102120.72;5012627;28;20319;-77
2021/09/02 08:23:55;;;;;;;10.25;7.22;;;;;;;19.07;100.00;102130.75;5008737;28;20185;-78
2021/09/02 08:26:24;;;;;;;8.85;6.93;;;;;;;19.22;100.00;102131.38;4980457;28;20232;-77
2021/09/02 08:28:50;;;;;;;10.23;6.60;;;;;;;18.89;100.00;102124.00;4991416;28;20694;-77
2021/09/02 08:31:18;;;;;;;13.07;6.80;;;;;;;18.67;100.00;102135.81;4977349;28;20231;-77
2021/09/02 08:33:44;;;;;;;11.75;6.75;;;;;;;19.16;100.00;102140.81;4983685;28;20188;-77
2021/09/02 08:36:14;;;;;;;10.90;6.20;;;;;;;19.52;100.00;102128.25;4968879;28;20228;-78
2021/09/02 08:38:41;;;;;;;10.60;6.60;;;;;;;19.72;100.00;102135.16;5003205;28;20255;-78
2021/09/02 08:41:08;;;;;;;10.73;6.05;;;;;;;19.57;100.00;102122.69;5026196;28;20213;-78
2021/09/02 08:43:38;;;;;;;10.75;5.90;;;;;;;19.59;100.00;102123.19;5020792;28;20671;-79
2021/09/02 08:46:04;;;;;;;11.85;6.55;;;;;;;19.28;100.00;102120.03;4986294;28;20236;-79
2021/09/02 08:48:29;;;;;;;12.13;6.53;;;;;;;18.86;100.00;102120.19;5001667;28;20197;-77
2021/09/02 08:50:55;;;;;;;11.32;6.38;;;;;;;19.28;100.00;102127.44;4999755;28;20221;-78
2021/09/02 08:53:23;;;;;;;13.88;6.93;;;;;;;19.20;100.00;102124.53;4986176;28;20185;-77
2021/09/02 08:55:51;;;;;;;13.88;7.13;;;;;;;19.19;100.00;102117.38;4995857;28;20225;-78
2021/09/02 08:58:16;;;;;;;10.02;6.20;;;;;;;19.47;100.00;102117.31;4995239;28;20228;-77
2021/09/02 09:00:42;;;;;;;10.57;6.72;;;;;;;19.77;100.00;102128.75;4994406;28;20714;-78
2021/09/02 09:03:08;;;;;;;11.88;6.40;;;;;;;19.90;100.00;102120.56;4999767;28;20681;-78
2021/09/02 09:05:34;;;;;;;11.25;6.13;;;;;;;20.13;100.00;102119.69;5012739;28;20228;-77
2021/09/02 09:08:03;;;;;;;10.35;6.35;;;;;;;19.94;100.00;102123.56;4996980;28;20208;-78
2021/09/02 09:10:29;;;;;;;11.52;6.13;;;;;;;20.32;100.00;102120.47;5025205;28;20220;-77
2021/09/02 09:13:03;;;;;;;12.10;7.32;;;;;;;19.69;100.00;102132.97;4997573;28;20182;-76
2021/09/02 09:15:39;;;;;;;13.65;7.22;;;;;;;19.10;100.00;102124.63;4975653;28;20603;-77
2021/09/02 09:18:15;;;;;;;11.77;6.82;;;;;;;19.60;100.00;102127.63;4999017;28;20208;-76
2021/09/02 09:20:41;;;;;;;12.02;7.10;;;;;;;20.21;100.00;102107.97;4996693;28;20216;-77
2021/09/02 09:23:07;;;;;;;15.02;7.10;;;;;;;19.73;100.00;102117.47;4997851;28;20200;-77
2021/09/02 09:25:36;;;;;;;11.98;6.78;;;;;;;19.44;100.00;102121.44;4965108;28;20335;-77
2021/09/02 09:28:02;;;;;;;9.10;6.82;;;;;;;19.39;100.00;102112.44;4981926;28;20228;-78
2021/09/02 09:30:38;;;;;;;14.05;7.35;;;;;;;19.09;100.00;102123.00;5007046;28;20235;-77
2021/09/02 09:33:10;;;;;;;12.73;6.90;;;;;;;19.09;100.00;102118.31;4998305;28;20315;-77
2021/09/02 09:35:44;;;;;;;13.43;6.63;;;;;;;19.50;100.00;102108.44;4965373;28;20217;-78
2021/09/02 09:38:14;;;;;;;13.48;6.95;;;;;;;19.65;100.00;102113.72;5012835;28;20212;-79
2021/09/02 09:40:41;;;;;;;12.68;6.72;;;;;;;20.08;100.00;102108.72;5022555;28;20228;-78
2021/09/02 09:43:08;;;;;;;15.68;6.68;;;;;;;20.20;100.00;102103.53;5000072;28;20184;-76
2021/09/02 09:45:40;;;;;;;12.48;7.13;;;;;;;20.00;100.00;102108.56;5022808;28;20247;-78
2021/09/02 09:48:17;;;;;;;14.82;6.97;;;;;;;20.63;100.00;102109.44;5028866;28;20221;-78
2021/09/02 09:50:45;;;;;;;15.05;6.90;;;;;;;21.01;100.00;102108.22;4996440;28;20597;-77
2021/09/02 09:53:26;;;;;;;10.57;7.20;;;;;;;21.07;97.40;102110.56;4996944;28;20181;-78
2021/09/02 09:55:54;;;;;;;13.25;7.20;;;;;;;20.94;98.71;102108.59;4987031;28;20718;-78
2021/09/02 09:58:21;;;;;;;13.93;7.25;;;;;;;20.70;97.53;102104.38;5008984;28;20204;-76
2021/09/02 10:00:47;;;;;;;9.40;6.75;;;;;;;20.57;100.00;102105.13;4979739;28;20217;-77
2021/09/02 10:03:12;;;;;;;13.95;6.88;;;;;;;19.96;100.00;102107.53;4996985;28;20725;-77
2021/09/02 10:05:41;;;;;;;12.88;7.00;;;;;;;19.77;100.00;102101.97;4979665;28;20233;-78
2021/09/02 10:08:09;;;;;;;11.43;6.75;;;;;;;20.35;100.00;102100.56;4995255;28;20822;-77
2021/09/02 10:10:34;;;;;;;9.48;6.78;;;;;;;20.25;100.00;102095.19;4970026;28;20229;-77
2021/09/02 10:13:02;;;;;;;12.25;6.70;;;;;;;20.02;100.00;102101.63;5015529;28;20188;-78
2021/09/02 10:15:30;;;;;;;11.65;6.72;;;;;;;20.22;100.00;102104.09;5011889;28;20220;-77
2021/09/02 10:17:58;;;;;;;11.38;7.22;;;;;;;20.20;100.00;102107.16;4996090;28;20236;-78
2021/09/02 10:20:32;;;;;;;10.95;7.20;;;;;;;20.28;100.00;102106.44;4995392;28;20221;-77
2021/09/02 10:22:59;;;;;;;11.50;6.53;;;;;;;20.41;100.00;102102.09;4981368;28;20252;-77
2021/09/02 10:25:33;;;;;;;10.57;7.13;;;;;;;20.49;100.00;102104.97;4979448;28;20185;-77
2021/09/02 10:28:07;;;;;;;12.38;7.07;;;;;;;20.59;100.00;102104.81;5012893;28;20324;-79
2021/09/02 10:30:45;;;;;;;14.02;7.15;;;;;;;20.58;100.00;102103.97;5012466;28;20259;-78
2021/09/02 10:33:33;;;;;;;14.75;6.60;;;;;;;21.17;95.48;102099.31;4981966;28;20204;-80
2021/09/02 10:35:59;;;;;;;11.30;6.38;;;;;;;21.26;92.80;102095.53;5012945;28;20300;-76
2021/09/02 10:38:38;;;;;;;11.45;6.30;;;;;;;21.44;89.98;102094.59;4996725;28;20196;-78
2021/09/02 10:41:04;;;;;;;13.25;6.68;;;;;;;21.54;90.22;102097.16;4996408;28;20216;-78
2021/09/02 10:43:43;;;;;;;11.20;7.32;;;;;;;20.88;93.26;102100.72;5012560;28;20188;-79
2021/09/02 10:46:25;;;;;;;11.98;6.45;;;;;;;20.39;96.49;102104.34;5008938;28;20221;-77
2021/09/02 10:48:51;;;;;;;10.23;6.78;;;;;;;20.90;94.49;102110.34;4976141;28;20206;-75
2021/09/02 10:51:34;;;;;;;12.15;6.65;;;;;;;21.40;92.47;102110.16;4997501;28;20576;-77
2021/09/02 10:54:06;;;;;;;11.13;7.28;;;;;;;21.34;91.09;102100.31;4996165;28;20555;-76
2021/09/02 10:56:51;;;;;;;9.60;6.65;;;;;;;21.29;91.36;102108.72;5007704;28;20218;-77
2021/09/02 10:59:51;;;;;;;10.85;6.15;;;;;;;21.00;94.80;102092.75;4992169;28;20196;-78
2021/09/02 11:02:19;;;;;;;11.38;6.40;;;;;;;21.16;93.87;102094.09;4997861;28;20596;-77
2021/09/02 11:04:56;;;;;;;10.60;7.13;;;;;;;21.13;93.66;102097.44;5012059;28;20197;-79
2021/09/02 11:07:37;;;;;;;11.77;6.57;;;;;;;21.23;92.27;102103.59;4964528;28;20235;-77
2021/09/02 11:10:07;;;;;;;11.77;7.63;;;;;;;21.32;92.00;102097.03;5004981;28;20294;-77
2021/09/02 11:12:36;;;;;;;13.20;6.85;;;;;;;21.84;89.27;102097.28;5000544;28;20553;-77
2021/09/02 11:15:05;;;;;;;10.85;6.20;;;;;;;21.60;89.71;102101.44;4999927;28;20196;-78
2021/09/02 11:17:33;;;;;;;12.35;6.97;;;;;;;21.20;92.67;102100.63;4992806;28;20626;-78